Check out our new BloomSky Weather System.

Active alerts


No alerts


Thunder radar  blitzortung!


Rain radar more information rain snow radar


Visit our other weather sites:

Template documentation
and downloads

And another site



Weather Underground History page Text

Daily Summary for November 14, 2017 Units:  English    Metric   Both
« Previous Day
Next Day »
Daily Weekly Monthly Yearly Custom
  High: Low: Average:
Temperature: 79.9 °F 58.3 °F 67.7 °F
Dew Point: 64.2 °F 57.4 °F 61.2 °F
Humidity: 98 % 56 % 81 %
Wind Speed: 7.0 mph 0.0 mph 1.6 mph
Wind Gust: 11.0 mph - -
Wind:- - SSE
Pressure: 30.21 in 30.01 in -
Precipitation: 0.00 in    
Historical Graphs
 
 
Tabular Data for November 14, 2017
Time Temperature Dew Point Pressure Wind Wind Speed Wind Gust Humidity Rainfall Rate (Hourly)
00:03 62.2 °F 59.9 °F 30.21 in Calm   1.0 mph 92 % 0.00 in
00:08 62.1 °F 60.1 °F 30.21 in Calm     93 % 0.00 in
00:13 61.9 °F 59.9 °F 30.21 in Calm     93 % 0.00 in
00:18 61.9 °F 59.9 °F 30.21 in Calm     93 % 0.00 in
00:23 61.7 °F 59.9 °F 30.21 in Calm     94 % 0.00 in
00:28 61.7 °F 59.9 °F 30.21 in Calm     94 % 0.00 in
00:34 61.5 °F 59.7 °F 30.21 in Calm     94 % 0.00 in
00:39 61.5 °F 59.7 °F 30.21 in Calm     94 % 0.00 in
00:44 61.3 °F 59.5 °F 30.21 in Calm     94 % 0.00 in
00:49 61.3 °F 59.9 °F 30.21 in Calm     95 % 0.00 in
00:54 61.2 °F 59.4 °F 30.20 in Calm     94 % 0.00 in
00:59 61.0 °F 59.5 °F 30.20 in Calm     95 % 0.00 in
01:04 60.8 °F 59.4 °F 30.19 in Calm     95 % 0.00 in
01:09 60.6 °F 59.2 °F 30.19 in Calm     95 % 0.00 in
01:14 60.4 °F 59.0 °F 30.19 in Calm     95 % 0.00 in
01:19 60.4 °F 59.4 °F 30.19 in Calm     96 % 0.00 in
01:24 60.6 °F 59.5 °F 30.19 in Calm     96 % 0.00 in
01:29 61.2 °F 60.3 °F 30.19 in East 1.0 mph 1.0 mph 97 % 0.00 in
01:34 61.5 °F 60.6 °F 30.19 in East 1.0 mph 2.0 mph 97 % 0.00 in
01:39 61.7 °F 60.6 °F 30.19 in Calm   3.0 mph 96 % 0.00 in
01:44 61.9 °F 60.8 °F 30.19 in Calm   3.0 mph 96 % 0.00 in
01:49 61.9 °F 60.8 °F 30.19 in Calm   3.0 mph 96 % 0.00 in
01:54 61.7 °F 60.3 °F 30.19 in Calm   1.0 mph 95 % 0.00 in
01:59 61.5 °F 60.1 °F 30.19 in Calm   1.0 mph 95 % 0.00 in
02:04 61.3 °F 59.9 °F 30.19 in Calm     95 % 0.00 in
02:09 61.2 °F 59.7 °F 30.18 in Calm     95 % 0.00 in
02:14 61.0 °F 59.5 °F 30.19 in Calm     95 % 0.00 in
02:19 60.6 °F 59.2 °F 30.19 in Calm   1.0 mph 95 % 0.00 in
02:24 60.4 °F 59.0 °F 30.19 in Calm   1.0 mph 95 % 0.00 in
02:29 60.4 °F 59.4 °F 30.19 in Calm   1.0 mph 96 % 0.00 in
02:34 60.4 °F 59.4 °F 30.18 in Calm     96 % 0.00 in
02:39 60.4 °F 59.4 °F 30.18 in Calm     96 % 0.00 in
02:44 60.3 °F 59.2 °F 30.18 in Calm   1.0 mph 96 % 0.00 in
02:49 60.1 °F 59.0 °F 30.18 in Calm   1.0 mph 96 % 0.00 in
02:54 60.1 °F 59.0 °F 30.18 in Calm   1.0 mph 96 % 0.00 in
02:59 59.7 °F 58.6 °F 30.18 in Calm     96 % 0.00 in
03:04 59.7 °F 58.6 °F 30.18 in Calm     96 % 0.00 in
03:09 59.5 °F 58.6 °F 30.18 in Calm     97 % 0.00 in
03:14 59.4 °F 58.5 °F 30.18 in Calm   1.0 mph 97 % 0.00 in
03:19 59.2 °F 58.3 °F 30.18 in Calm   1.0 mph 97 % 0.00 in
03:24 59.2 °F 58.3 °F 30.18 in Calm   1.0 mph 97 % 0.00 in
03:25 59.2 °F 58.3 °F 30.18 in Calm     97 % 0.00 in
03:30 59.0 °F 58.1 °F 30.18 in Calm     97 % 0.00 in
03:31 59.0 °F 58.1 °F 30.18 in Calm     97 % 0.00 in
03:36 58.6 °F 57.7 °F 30.17 in Calm     97 % 0.00 in
03:41 58.5 °F 57.6 °F 30.18 in Calm     97 % 0.00 in
03:46 58.6 °F 57.7 °F 30.18 in Calm     97 % 0.00 in
03:51 58.8 °F 57.9 °F 30.18 in Calm     97 % 0.00 in
03:56 58.8 °F 57.9 °F 30.17 in Calm     97 % 0.00 in
04:01 58.8 °F 57.9 °F 30.17 in Calm     97 % 0.00 in
04:06 58.8 °F 57.9 °F 30.17 in Calm     97 % 0.00 in
04:11 58.8 °F 57.9 °F 30.17 in Calm     97 % 0.00 in
04:16 58.8 °F 57.9 °F 30.17 in Calm     97 % 0.00 in
04:21 58.6 °F 57.7 °F 30.17 in Calm     97 % 0.00 in
04:26 58.5 °F 57.6 °F 30.17 in Calm     97 % 0.00 in
04:31 58.3 °F 57.4 °F 30.17 in Calm     97 % 0.00 in
04:36 58.5 °F 57.9 °F 30.17 in Calm     98 % 0.00 in
04:41 58.6 °F 58.1 °F 30.17 in Calm     98 % 0.00 in
04:46 58.6 °F 58.1 °F 30.17 in Calm     98 % 0.00 in
04:51 58.6 °F 58.1 °F 30.17 in Calm     98 % 0.00 in
04:56 58.8 °F 58.3 °F 30.17 in Calm     98 % 0.00 in
05:01 59.0 °F 58.5 °F 30.17 in Calm     98 % 0.00 in
05:06 59.2 °F 58.6 °F 30.17 in Calm     98 % 0.00 in
05:11 59.2 °F 58.6 °F 30.17 in Calm     98 % 0.00 in
05:16 59.4 °F 58.8 °F 30.17 in Calm     98 % 0.00 in
05:21 59.4 °F 58.8 °F 30.17 in Calm     98 % 0.00 in
05:26 59.5 °F 59.0 °F 30.17 in Calm   1.0 mph 98 % 0.00 in
05:31 59.5 °F 59.0 °F 30.17 in Calm   1.0 mph 98 % 0.00 in
05:36 59.7 °F 59.2 °F 30.18 in Calm   1.0 mph 98 % 0.00 in
05:42 59.7 °F 59.2 °F 30.17 in Calm   1.0 mph 98 % 0.00 in
05:47 59.7 °F 59.2 °F 30.17 in Calm   1.0 mph 98 % 0.00 in
05:52 59.7 °F 58.8 °F 30.17 in Calm   1.0 mph 97 % 0.00 in
05:57 59.7 °F 58.8 °F 30.18 in Calm   1.0 mph 97 % 0.00 in
06:07 59.9 °F 59.0 °F 30.18 in Calm   2.0 mph 97 % 0.00 in
06:12 59.9 °F 59.0 °F 30.18 in Calm   2.0 mph 97 % 0.00 in
06:17 59.9 °F 58.8 °F 30.18 in Calm   2.0 mph 96 % 0.00 in
06:22 59.9 °F 58.8 °F 30.18 in Calm   1.0 mph 96 % 0.00 in
06:27 59.9 °F 58.8 °F 30.18 in Calm   1.0 mph 96 % 0.00 in
06:31 59.9 °F 58.8 °F 30.18 in Calm   1.0 mph 96 % 0.00 in
06:36 59.9 °F 58.8 °F 30.18 in ESE 2.0 mph 3.0 mph 96 % 0.00 in
06:41 59.9 °F 58.8 °F 30.18 in SE 1.0 mph 4.0 mph 96 % 0.00 in
06:46 60.1 °F 58.6 °F 30.18 in Calm   5.0 mph 95 % 0.00 in
06:51 60.1 °F 58.6 °F 30.19 in Calm   5.0 mph 95 % 0.00 in
06:56 60.1 °F 58.6 °F 30.19 in Calm   5.0 mph 95 % 0.00 in
07:01 60.1 °F 58.6 °F 30.19 in Calm   3.0 mph 95 % 0.00 in
07:06 60.1 °F 58.6 °F 30.19 in Calm   3.0 mph 95 % 0.00 in
07:11 60.1 °F 58.6 °F 30.19 in Calm   3.0 mph 95 % 0.00 in
07:16 60.1 °F 58.6 °F 30.19 in Calm   2.0 mph 95 % 0.00 in
07:21 60.1 °F 58.6 °F 30.19 in Calm   1.0 mph 95 % 0.00 in
07:26 60.1 °F 58.6 °F 30.19 in Calm   1.0 mph 95 % 0.00 in
07:31 60.1 °F 58.6 °F 30.19 in Calm   1.0 mph 95 % 0.00 in
07:36 60.1 °F 58.6 °F 30.19 in Calm   2.0 mph 95 % 0.00 in
07:41 60.3 °F 58.8 °F 30.19 in Calm   2.0 mph 95 % 0.00 in
07:46 60.4 °F 59.0 °F 30.19 in East 3.0 mph 3.0 mph 95 % 0.00 in
07:51 60.6 °F 58.8 °F 30.19 in Calm   3.0 mph 94 % 0.00 in
07:56 61.0 °F 59.0 °F 30.19 in East 2.0 mph 3.0 mph 93 % 0.00 in
08:01 61.2 °F 59.2 °F 30.19 in ENE 2.0 mph 5.0 mph 93 % 0.00 in
08:06 61.3 °F 59.4 °F 30.19 in ESE 1.0 mph 5.0 mph 93 % 0.00 in
08:11 61.7 °F 59.7 °F 30.19 in South 2.0 mph 5.0 mph 93 % 0.00 in
08:16 61.9 °F 59.5 °F 30.19 in Calm   3.0 mph 92 % 0.00 in
08:21 62.1 °F 59.4 °F 30.19 in Calm   3.0 mph 91 % 0.00 in
08:26 62.4 °F 59.7 °F 30.19 in Calm   3.0 mph 91 % 0.00 in
08:31 62.8 °F 60.1 °F 30.19 in NE 1.0 mph 3.0 mph 91 % 0.00 in
08:36 63.1 °F 60.1 °F 30.19 in East 2.0 mph 4.0 mph 90 % 0.00 in
08:41 63.3 °F 60.1 °F 30.20 in SSE 1.0 mph 6.0 mph 89 % 0.00 in
08:46 63.5 °F 60.3 °F 30.20 in SSE 2.0 mph 6.0 mph 89 % 0.00 in
08:51 63.7 °F 60.1 °F 30.19 in SE 1.0 mph 6.0 mph 88 % 0.00 in
08:56 63.9 °F 60.3 °F 30.20 in ESE 1.0 mph 3.0 mph 88 % 0.00 in
09:01 64.0 °F 60.1 °F 30.20 in SE 3.0 mph 4.0 mph 87 % 0.00 in
09:06 64.4 °F 60.4 °F 30.20 in ESE 1.0 mph 4.0 mph 87 % 0.00 in
09:11 64.9 °F 61.0 °F 30.20 in Calm   4.0 mph 87 % 0.00 in
09:16 65.5 °F 61.2 °F 30.20 in South 3.0 mph 4.0 mph 86 % 0.00 in
09:21 65.7 °F 61.3 °F 30.20 in Calm   4.0 mph 86 % 0.00 in
09:26 66.4 °F 61.7 °F 30.20 in East 2.0 mph 3.0 mph 85 % 0.00 in
09:31 66.9 °F 61.5 °F 30.20 in SSW 1.0 mph 3.0 mph 83 % 0.00 in
09:36 67.6 °F 61.5 °F 30.20 in SE 2.0 mph 5.0 mph 81 % 0.00 in
09:41 68.2 °F 61.3 °F 30.20 in SSE 2.0 mph 6.0 mph 79 % 0.00 in
09:46 68.5 °F 62.1 °F 30.19 in SE 1.0 mph 6.0 mph 80 % 0.00 in
09:51 69.1 °F 61.9 °F 30.19 in SE 1.0 mph 6.0 mph 78 % 0.00 in
09:56 69.3 °F 61.7 °F 30.19 in SE 3.0 mph 7.0 mph 77 % 0.00 in
10:01 69.6 °F 62.1 °F 30.19 in SSE 3.0 mph 7.0 mph 77 % 0.00 in
10:06 70.0 °F 62.1 °F 30.19 in Calm   7.0 mph 76 % 0.00 in
10:11 70.5 °F 62.2 °F 30.19 in East 2.0 mph 7.0 mph 75 % 0.00 in
10:16 70.9 °F 62.2 °F 30.19 in SE 1.0 mph 7.0 mph 74 % 0.00 in
10:21 70.7 °F 62.1 °F 30.18 in SE 2.0 mph 7.0 mph 74 % 0.00 in
10:26 71.1 °F 61.9 °F 30.18 in East 2.0 mph 8.0 mph 73 % 0.00 in
10:31 71.2 °F 61.7 °F 30.18 in SE 4.0 mph 8.0 mph 72 % 0.00 in
10:36 71.4 °F 61.9 °F 30.18 in SE 1.0 mph 8.0 mph 72 % 0.00 in
10:41 71.8 °F 62.2 °F 30.18 in ESE 3.0 mph 6.0 mph 72 % 0.00 in
10:46 72.1 °F 61.9 °F 30.18 in SE 5.0 mph 7.0 mph 70 % 0.00 in
10:51 72.5 °F 62.6 °F 30.17 in East 7.0 mph 8.0 mph 71 % 0.00 in
10:56 72.5 °F 61.7 °F 30.17 in South 2.0 mph 8.0 mph 69 % 0.00 in
11:01 72.7 °F 61.9 °F 30.17 in East 5.0 mph 8.0 mph 69 % 0.00 in
11:06 73.0 °F 61.9 °F 30.17 in South 4.0 mph 7.0 mph 68 % 0.00 in
11:11 73.0 °F 61.9 °F 30.17 in ESE 3.0 mph 9.0 mph 68 % 0.00 in
11:16 73.6 °F 61.9 °F 30.16 in South 1.0 mph 9.0 mph 67 % 0.00 in
11:21 73.9 °F 62.2 °F 30.16 in SSW 6.0 mph 9.0 mph 67 % 0.00 in
11:26 74.1 °F 62.4 °F 30.16 in Calm   11.0 mph 67 % 0.00 in
11:31 74.1 °F 62.1 °F 30.16 in SSE 2.0 mph 11.0 mph 66 % 0.00 in
11:36 74.1 °F 62.1 °F 30.16 in ESE 2.0 mph 11.0 mph 66 % 0.00 in
11:41 74.5 °F 62.8 °F 30.15 in South 4.0 mph 7.0 mph 67 % 0.00 in
11:46 74.8 °F 62.8 °F 30.15 in SE 4.0 mph 7.0 mph 66 % 0.00 in
11:51 75.0 °F 63.3 °F 30.14 in SSE 2.0 mph 8.0 mph 67 % 0.00 in
11:56 75.4 °F 63.1 °F 30.14 in SSE 6.0 mph 8.0 mph 66 % 0.00 in
12:01 75.7 °F 63.5 °F 30.14 in SSE 1.0 mph 8.0 mph 66 % 0.00 in
12:06 75.7 °F 63.1 °F 30.13 in SSE 5.0 mph 7.0 mph 65 % 0.00 in
12:11 76.3 °F 63.1 °F 30.13 in SSW 6.0 mph 7.0 mph 64 % 0.00 in
12:16 76.6 °F 64.0 °F 30.13 in SW 1.0 mph 9.0 mph 65 % 0.00 in
12:21 77.2 °F 63.7 °F 30.12 in SE 3.0 mph 9.0 mph 63 % 0.00 in
12:26 77.0 °F 63.5 °F 30.12 in SSE 2.0 mph 9.0 mph 63 % 0.00 in
12:31 77.2 °F 63.1 °F 30.12 in SSE 2.0 mph 8.0 mph 62 % 0.00 in
12:36 77.2 °F 63.1 °F 30.11 in South 4.0 mph 8.0 mph 62 % 0.00 in
12:41 77.2 °F 63.1 °F 30.11 in South 4.0 mph 7.0 mph 62 % 0.00 in
12:46 77.2 °F 63.1 °F 30.11 in ENE 4.0 mph 7.0 mph 62 % 0.00 in
12:51 77.5 °F 63.9 °F 30.10 in SW 3.0 mph 7.0 mph 63 % 0.00 in
12:56 77.9 °F 63.0 °F 30.10 in South 3.0 mph 6.0 mph 60 % 0.00 in
13:01 77.9 °F 63.9 °F 30.10 in East 1.0 mph 8.0 mph 62 % 0.00 in
13:06 77.9 °F 63.9 °F 30.09 in SE 1.0 mph 8.0 mph 62 % 0.00 in
13:11 78.4 °F 63.9 °F 30.09 in SE 4.0 mph 8.0 mph 61 % 0.00 in
13:16 78.4 °F 63.3 °F 30.09 in SSW 2.0 mph 6.0 mph 60 % 0.00 in
13:21 78.8 °F 64.2 °F 30.09 in East 3.0 mph 6.0 mph 61 % 0.00 in
13:26 78.4 °F 63.0 °F 30.09 in SE 1.0 mph 7.0 mph 59 % 0.00 in
13:31 78.4 °F 63.3 °F 30.09 in SSE 2.0 mph 7.0 mph 60 % 0.00 in
13:36 78.6 °F 63.5 °F 30.08 in SW 2.0 mph 7.0 mph 60 % 0.00 in
13:41 78.8 °F 63.7 °F 30.08 in SSE 2.0 mph 7.0 mph 60 % 0.00 in
13:46 79.0 °F 63.5 °F 30.08 in WSW 2.0 mph 6.0 mph 59 % 0.00 in
13:51 79.3 °F 63.3 °F 30.07 in SE 3.0 mph 6.0 mph 58 % 0.00 in
13:56 79.2 °F 63.1 °F 30.07 in SSE 5.0 mph 8.0 mph 58 % 0.00 in
14:01 79.2 °F 63.7 °F 30.07 in SE 3.0 mph 8.0 mph 59 % 0.00 in
14:06 79.3 °F 63.3 °F 30.06 in SSW 4.0 mph 8.0 mph 58 % 0.00 in
14:11 79.5 °F 63.0 °F 30.06 in SE 2.0 mph 7.0 mph 57 % 0.00 in
14:16 79.5 °F 63.5 °F 30.06 in SSE 3.0 mph 6.0 mph 58 % 0.00 in
14:21 79.9 °F 63.3 °F 30.06 in SE 4.0 mph 8.0 mph 57 % 0.00 in
14:26 79.5 °F 63.0 °F 30.06 in ESE 2.0 mph 8.0 mph 57 % 0.00 in
14:31 79.3 °F 63.3 °F 30.06 in SSE 3.0 mph 8.0 mph 58 % 0.00 in
14:36 79.5 °F 63.0 °F 30.05 in SSW 3.0 mph 7.0 mph 57 % 0.00 in
14:41 79.5 °F 63.5 °F 30.05 in ESE 3.0 mph 10.0 mph 58 % 0.00 in
14:46 79.7 °F 63.7 °F 30.05 in SE 5.0 mph 10.0 mph 58 % 0.00 in
14:51 79.7 °F 62.6 °F 30.05 in SW 4.0 mph 10.0 mph 56 % 0.00 in
14:56 79.5 °F 63.0 °F 30.05 in SSE 2.0 mph 8.0 mph 57 % 0.00 in
15:01 79.3 °F 62.8 °F 30.04 in SE 3.0 mph 8.0 mph 57 % 0.00 in
15:06 79.2 °F 63.1 °F 30.04 in East 2.0 mph 8.0 mph 58 % 0.00 in
15:11 79.2 °F 62.6 °F 30.04 in South 2.0 mph 8.0 mph 57 % 0.00 in
15:16 79.2 °F 63.1 °F 30.04 in East 4.0 mph 8.0 mph 58 % 0.00 in
15:21 79.2 °F 62.1 °F 30.04 in South 3.0 mph 8.0 mph 56 % 0.00 in
15:26 79.3 °F 62.8 °F 30.04 in SSW 1.0 mph 8.0 mph 57 % 0.00 in
15:31 79.3 °F 62.2 °F 30.04 in SSW 4.0 mph 6.0 mph 56 % 0.00 in
15:36 79.3 °F 62.8 °F 30.04 in SSE 2.0 mph 6.0 mph 57 % 0.00 in
15:41 79.2 °F 62.6 °F 30.04 in South 4.0 mph 6.0 mph 57 % 0.00 in
15:46 79.0 °F 62.4 °F 30.03 in ESE 2.0 mph 7.0 mph 57 % 0.00 in
15:51 78.6 °F 62.6 °F 30.03 in SSE 4.0 mph 7.0 mph 58 % 0.00 in
15:56 78.4 °F 63.0 °F 30.03 in SSE 3.0 mph 7.0 mph 59 % 0.00 in
16:01 78.3 °F 63.3 °F 30.03 in SSE 3.0 mph 7.0 mph 60 % 0.00 in
16:11 78.1 °F 63.5 °F 30.03 in SE 4.0 mph 6.0 mph 61 % 0.00 in
16:16 77.9 °F 63.3 °F 30.03 in SSW 2.0 mph 6.0 mph 61 % 0.00 in
16:21 77.7 °F 63.1 °F 30.03 in South 3.0 mph 7.0 mph 61 % 0.00 in
16:26 77.7 °F 63.1 °F 30.02 in SSE 3.0 mph 7.0 mph 61 % 0.00 in
16:31 77.4 °F 63.9 °F 30.02 in SE 2.0 mph 7.0 mph 63 % 0.00 in
16:36 77.4 °F 63.9 °F 30.02 in SSE 2.0 mph 6.0 mph 63 % 0.00 in
16:41 77.0 °F 63.5 °F 30.02 in ESE 2.0 mph 6.0 mph 63 % 0.00 in
16:46 76.8 °F 63.7 °F 30.02 in Calm   5.0 mph 64 % 0.00 in
16:51 76.6 °F 64.0 °F 30.02 in SSE 2.0 mph 5.0 mph 65 % 0.00 in
16:56 76.3 °F 64.0 °F 30.02 in SE 1.0 mph 5.0 mph 66 % 0.00 in
17:01 76.1 °F 63.9 °F 30.02 in SE 2.0 mph 4.0 mph 66 % 0.00 in
17:06 75.9 °F 63.7 °F 30.02 in SSE 1.0 mph 5.0 mph 66 % 0.00 in
17:11 75.6 °F 63.3 °F 30.02 in ESE 3.0 mph 5.0 mph 66 % 0.00 in
17:16 75.4 °F 63.1 °F 30.02 in East 2.0 mph 5.0 mph 66 % 0.00 in
17:21 75.0 °F 63.3 °F 30.02 in East 2.0 mph 4.0 mph 67 % 0.00 in
17:26 74.8 °F 63.1 °F 30.02 in Calm   4.0 mph 67 % 0.00 in
17:31 74.5 °F 63.1 °F 30.02 in SE 3.0 mph 4.0 mph 68 % 0.00 in
17:36 74.1 °F 63.3 °F 30.02 in SSE 2.0 mph 5.0 mph 69 % 0.00 in
17:37 74.1 °F 63.3 °F 30.02 in SSE 2.0 mph 5.0 mph 69 % 0.00 in
17:41 73.8 °F 63.0 °F 30.02 in SE 2.0 mph 5.0 mph 69 % 0.00 in
17:47 73.6 °F 63.1 °F 30.02 in ESE 2.0 mph 5.0 mph 70 % 0.00 in
17:52 73.2 °F 62.8 °F 30.02 in Calm   4.0 mph 70 % 0.00 in
17:57 72.9 °F 63.0 °F 30.03 in SE 1.0 mph 4.0 mph 71 % 0.00 in
18:02 72.7 °F 62.8 °F 30.03 in SSE 4.0 mph 4.0 mph 71 % 0.00 in
18:07 72.1 °F 62.2 °F 30.03 in SE 4.0 mph 6.0 mph 71 % 0.00 in
18:12 72.1 °F 62.2 °F 30.03 in SE 1.0 mph 6.0 mph 71 % 0.00 in
18:17 71.8 °F 61.9 °F 30.03 in SE 2.0 mph 6.0 mph 71 % 0.00 in
18:22 71.6 °F 62.1 °F 30.03 in ESE 3.0 mph 6.0 mph 72 % 0.00 in
18:27 71.4 °F 61.9 °F 30.03 in SSE 2.0 mph 7.0 mph 72 % 0.00 in
18:32 71.1 °F 61.5 °F 30.03 in SE 4.0 mph 7.0 mph 72 % 0.00 in
18:37 70.9 °F 61.9 °F 30.04 in SSE 3.0 mph 7.0 mph 73 % 0.00 in
18:42 70.7 °F 61.7 °F 30.03 in SE 2.0 mph 5.0 mph 73 % 0.00 in
18:45 70.5 °F 61.9 °F 30.04 in East 2.0 mph 5.0 mph 74 % 0.00 in
18:50 70.3 °F 61.7 °F 30.04 in SSE 2.0 mph 6.0 mph 74 % 0.00 in
18:55 70.2 °F 61.9 °F 30.04 in ESE 3.0 mph 6.0 mph 75 % 0.00 in
19:00 70.0 °F 61.7 °F 30.04 in SE 2.0 mph 6.0 mph 75 % 0.00 in
19:05 69.8 °F 61.5 °F 30.04 in ESE 2.0 mph 6.0 mph 75 % 0.00 in
19:10 69.6 °F 61.7 °F 30.04 in SSE 2.0 mph 5.0 mph 76 % 0.00 in
19:15 69.4 °F 61.5 °F 30.04 in ESE 3.0 mph 5.0 mph 76 % 0.00 in
19:20 69.3 °F 61.3 °F 30.04 in ESE 5.0 mph 6.0 mph 76 % 0.00 in
19:22 69.3 °F 61.3 °F 30.04 in SSE 1.0 mph 6.0 mph 76 % 0.00 in
19:27 69.1 °F 61.5 °F 30.04 in SSE 4.0 mph 6.0 mph 77 % 0.00 in
19:32 69.1 °F 61.5 °F 30.04 in South 3.0 mph 7.0 mph 77 % 0.00 in
19:37 68.9 °F 61.3 °F 30.04 in SSE 5.0 mph 7.0 mph 77 % 0.00 in
19:42 68.7 °F 61.2 °F 30.04 in South 5.0 mph 7.0 mph 77 % 0.00 in
19:47 68.7 °F 61.2 °F 30.04 in SSE 6.0 mph 11.0 mph 77 % 0.00 in
19:52 68.5 °F 61.3 °F 30.04 in ESE 3.0 mph 11.0 mph 78 % 0.00 in
19:57 68.4 °F 61.5 °F 30.04 in SE 4.0 mph 11.0 mph 79 % 0.00 in
20:02 68.4 °F 61.5 °F 30.04 in SE 2.0 mph 9.0 mph 79 % 0.00 in
20:07 68.2 °F 61.7 °F 30.04 in SW 4.0 mph 7.0 mph 80 % 0.00 in
20:12 68.0 °F 61.9 °F 30.04 in SSW 3.0 mph 7.0 mph 81 % 0.00 in
20:17 67.8 °F 61.7 °F 30.04 in South 2.0 mph 7.0 mph 81 % 0.00 in
20:18 67.8 °F 61.7 °F 30.04 in SE 3.0 mph 7.0 mph 81 % 0.00 in
20:23 67.6 °F 61.9 °F 30.04 in South 2.0 mph 7.0 mph 82 % 0.00 in
20:28 67.6 °F 61.9 °F 30.05 in SSE 2.0 mph 8.0 mph 82 % 0.00 in
20:33 67.5 °F 62.1 °F 30.04 in SE 3.0 mph 8.0 mph 83 % 0.00 in
20:38 67.5 °F 62.1 °F 30.05 in ESE 4.0 mph 8.0 mph 83 % 0.00 in
20:43 67.3 °F 62.2 °F 30.04 in ESE 3.0 mph 7.0 mph 84 % 0.00 in
20:48 67.1 °F 62.1 °F 30.05 in SSW 1.0 mph 6.0 mph 84 % 0.00 in
20:53 66.9 °F 61.9 °F 30.05 in SE 3.0 mph 6.0 mph 84 % 0.00 in
20:58 66.9 °F 62.2 °F 30.05 in SE 4.0 mph 6.0 mph 85 % 0.00 in
21:03 66.9 °F 62.2 °F 30.05 in ESE 1.0 mph 5.0 mph 85 % 0.00 in
21:08 66.7 °F 62.1 °F 30.05 in SE 2.0 mph 5.0 mph 85 % 0.00 in
21:14 66.7 °F 62.4 °F 30.05 in SSE 2.0 mph 5.0 mph 86 % 0.00 in
21:19 66.6 °F 62.2 °F 30.05 in SSE 1.0 mph 5.0 mph 86 % 0.00 in
21:22 66.4 °F 62.1 °F 30.05 in SW 3.0 mph 5.0 mph 86 % 0.00 in
21:24 66.4 °F 62.1 °F 30.05 in SSW 1.0 mph 5.0 mph 86 % 0.00 in
21:27 66.2 °F 62.2 °F 30.05 in SW 3.0 mph 5.0 mph 87 % 0.00 in
21:32 66.0 °F 62.1 °F 30.05 in SSW 3.0 mph 5.0 mph 87 % 0.00 in
21:37 65.8 °F 61.9 °F 30.05 in SSW 2.0 mph 5.0 mph 87 % 0.00 in
21:42 65.7 °F 62.1 °F 30.05 in Calm   5.0 mph 88 % 0.00 in
21:45 65.7 °F 62.1 °F 30.05 in Calm   4.0 mph 88 % 0.00 in
21:51 65.5 °F 61.9 °F 30.05 in South 1.0 mph 4.0 mph 88 % 0.00 in
21:56 65.5 °F 62.2 °F 30.05 in SSE 2.0 mph 4.0 mph 89 % 0.00 in
21:57 65.5 °F 62.2 °F 30.05 in SSE 4.0 mph 4.0 mph 89 % 0.00 in
22:02 65.5 °F 62.2 °F 30.05 in SSE 2.0 mph 4.0 mph 89 % 0.00 in
22:07 65.3 °F 62.1 °F 30.05 in Calm   5.0 mph 89 % 0.00 in
22:12 65.1 °F 61.9 °F 30.04 in SSE 1.0 mph 5.0 mph 89 % 0.00 in
22:17 65.1 °F 61.9 °F 30.04 in Calm   5.0 mph 89 % 0.00 in
22:22 64.9 °F 61.9 °F 30.04 in SE 1.0 mph 3.0 mph 90 % 0.00 in
22:27 64.9 °F 61.9 °F 30.04 in SSE 1.0 mph 3.0 mph 90 % 0.00 in
22:32 64.8 °F 62.1 °F 30.04 in SSE 1.0 mph 4.0 mph 91 % 0.00 in
22:36 64.8 °F 62.1 °F 30.04 in SSW 1.0 mph 4.0 mph 91 % 0.00 in
22:41 64.8 °F 62.1 °F 30.04 in ESE 1.0 mph 4.0 mph 91 % 0.00 in
22:46 64.8 °F 62.1 °F 30.04 in SE 3.0 mph 4.0 mph 91 % 0.00 in
22:51 64.8 °F 62.1 °F 30.03 in SSE 2.0 mph 5.0 mph 91 % 0.00 in
22:56 64.8 °F 62.1 °F 30.03 in SSE 1.0 mph 5.0 mph 91 % 0.00 in
23:01 64.6 °F 61.9 °F 30.03 in South 1.0 mph 5.0 mph 91 % 0.00 in
23:06 64.6 °F 61.9 °F 30.03 in East 2.0 mph 4.0 mph 91 % 0.00 in
23:11 64.4 °F 62.1 °F 30.03 in ESE 2.0 mph 4.0 mph 92 % 0.00 in
23:16 64.2 °F 61.9 °F 30.03 in SE 1.0 mph 4.0 mph 92 % 0.00 in
23:21 64.2 °F 61.9 °F 30.02 in East 1.0 mph 3.0 mph 92 % 0.00 in
23:26 64.0 °F 61.7 °F 30.02 in SE 1.0 mph 3.0 mph 92 % 0.00 in
23:31 64.0 °F 61.7 °F 30.02 in SE 2.0 mph 3.0 mph 92 % 0.00 in
23:36 63.9 °F 61.9 °F 30.02 in Calm   3.0 mph 93 % 0.00 in
23:41 63.9 °F 61.9 °F 30.02 in Calm   3.0 mph 93 % 0.00 in
23:46 63.7 °F 61.7 °F 30.02 in ESE 1.0 mph 3.0 mph 93 % 0.00 in
23:51 63.5 °F 61.5 °F 30.02 in ESE 1.0 mph 2.0 mph 93 % 0.00 in
23:56 63.5 °F 61.7 °F 30.01 in ESE 1.0 mph 4.0 mph 94 % 0.00 in
Spring, Texas: Villages of Bridgestone
Compliments of Weather Underground - 2.75 mb

Script developed by  Jim McMurry - jmcmurry@mwt.net Adapted for the template by  Wim van der Kuil - Leuven-Template.eu

You find our weather info also at:

UK Metoffice

WeatherCloud

Weather Underground

Mid-South Weather Network

AWEKAS

Citizen Weather Observer Program (CWOP)

HAMweather, WeatherForYou, PWS Weather

Equipment we use:

Weather-station
Davis Vantage Vue

Weather-program
Meteohub

Weather-server
Debian 7.9 x86 (Guest)

Provider
DreamHost

Davis Vantage Vue

Meteohub

Debian 7.9 x86 (Guest)

DreamHost